createdAt,value
2023-03-22T00:01:41.054Z,7.12
2023-03-22T00:04:13.468Z,7.14
2023-03-22T00:06:45.388Z,7.17
2023-03-22T00:09:17.456Z,7.19
2023-03-22T00:11:51.112Z,7.18
2023-03-22T00:14:25.746Z,7.18
2023-03-22T00:16:57.771Z,7.18
2023-03-22T00:19:30.419Z,7.21
2023-03-22T00:22:03.650Z,7.19
2023-03-22T00:24:38.806Z,7.15
2023-03-22T00:27:11.269Z,7.14
2023-03-22T00:29:48.683Z,7.15
2023-03-22T00:32:21.285Z,7.16
2023-03-22T00:34:55.106Z,7.18
2023-03-22T00:37:34.146Z,7.16
2023-03-22T00:40:09.030Z,7.15
2023-03-22T00:42:42.522Z,7.16
2023-03-22T00:45:15.825Z,7.16
2023-03-22T00:47:48.049Z,7.16
2023-03-22T00:50:23.309Z,7.18
2023-03-22T00:52:55.465Z,7.19
2023-03-22T00:55:27.572Z,7.19
2023-03-22T00:58:00.454Z,7.20
2023-03-22T01:00:34.916Z,7.19
2023-03-22T01:03:07.190Z,7.16
2023-03-22T01:05:39.343Z,7.14
2023-03-22T01:08:13.055Z,7.11
2023-03-22T01:10:47.589Z,7.07
2023-03-22T01:13:21.538Z,7.02
2023-03-22T01:15:54.373Z,6.95
2023-03-22T01:18:26.642Z,6.94
2023-03-22T01:21:00.117Z,6.92
2023-03-22T01:23:32.233Z,6.90
2023-03-22T01:26:05.007Z,6.84
2023-03-22T01:28:37.313Z,6.77
2023-03-22T01:31:10.172Z,6.70
2023-03-22T01:33:42.184Z,6.62
2023-03-22T01:36:14.793Z,6.52
2023-03-22T01:38:46.908Z,6.39
2023-03-22T01:41:20.632Z,6.31
2023-03-22T01:44:14.098Z,6.26
2023-03-22T01:46:48.461Z,6.16
2023-03-22T01:49:24.516Z,6.08
2023-03-22T01:52:00.464Z,5.98
2023-03-22T01:54:46.181Z,5.85
2023-03-22T01:57:39.547Z,5.83
2023-03-22T02:00:17.232Z,5.78
2023-03-22T02:03:02.138Z,5.70
2023-03-22T02:05:42.139Z,5.61
2023-03-22T02:08:15.164Z,5.54
2023-03-22T02:11:06.499Z,5.48
2023-03-22T02:13:57.527Z,5.45
2023-03-22T02:17:12.160Z,5.40
2023-03-22T02:20:04.322Z,5.41
2023-03-22T02:23:03.719Z,5.42
2023-03-22T02:26:06.025Z,5.43
2023-03-22T02:28:49.740Z,5.36
2023-03-22T02:31:40.641Z,5.31
2023-03-22T02:34:37.510Z,5.32
2023-03-22T02:37:40.281Z,5.29
2023-03-22T02:40:16.632Z,5.28
2023-03-22T02:42:57.688Z,5.27
2023-03-22T02:45:36.104Z,5.26
2023-03-22T02:48:16.712Z,5.26
2023-03-22T02:50:54.943Z,5.22
2023-03-22T02:53:31.846Z,5.23
2023-03-22T02:56:08.159Z,5.25
2023-03-22T02:58:45.856Z,5.26
2023-03-22T03:01:24.905Z,5.30
2023-03-22T03:04:01.241Z,5.37
2023-03-22T03:06:38.977Z,5.44
2023-03-22T03:09:13.878Z,5.48
2023-03-22T03:11:49.085Z,5.45
2023-03-22T03:14:26.595Z,5.41
2023-03-22T03:17:14.415Z,5.44
2023-03-22T03:19:58.684Z,5.48
2023-03-22T03:22:44.779Z,5.54
2023-03-22T03:25:26.191Z,5.56
2023-03-22T03:28:05.637Z,5.58
2023-03-22T03:30:43.415Z,5.60
2023-03-22T03:33:20.850Z,5.63
2023-03-22T03:35:57.901Z,5.66
2023-03-22T03:38:32.944Z,5.67
2023-03-22T03:41:07.955Z,5.68
2023-03-22T03:43:41.178Z,5.71
2023-03-22T03:46:13.972Z,5.76
2023-03-22T03:48:49.806Z,5.78
2023-03-22T03:51:21.842Z,5.82
2023-03-22T03:53:54.314Z,5.85
2023-03-22T03:56:26.561Z,5.86
2023-03-22T03:58:58.938Z,5.86
2023-03-22T04:01:31.021Z,5.87
2023-03-22T04:04:11.561Z,5.88
2023-03-22T04:06:54.371Z,5.88
2023-03-22T04:09:29.507Z,5.90
2023-03-22T04:12:04.306Z,5.92
2023-03-22T04:14:36.871Z,5.92
2023-03-22T04:17:14.536Z,5.93
2023-03-22T04:19:46.528Z,5.95
2023-03-22T04:22:21.641Z,5.96
2023-03-22T04:24:56.577Z,5.96
2023-03-22T04:27:31.036Z,5.94
2023-03-22T04:30:10.703Z,5.92
2023-03-22T04:33:11.780Z,5.91
2023-03-22T04:36:10.265Z,5.92
2023-03-22T04:38:50.781Z,5.92
2023-03-22T04:41:24.950Z,5.93
2023-03-22T04:44:03.524Z,5.97
2023-03-22T04:46:38.112Z,6.00
2023-03-22T04:49:11.317Z,6.02
2023-03-22T04:51:44.804Z,6.04
2023-03-22T04:54:37.392Z,6.07
2023-03-22T04:57:09.594Z,6.09
2023-03-22T04:59:45.096Z,6.11
2023-03-22T05:02:17.231Z,6.14
2023-03-22T05:04:49.949Z,6.19
2023-03-22T05:07:36.620Z,6.26
2023-03-22T05:10:11.712Z,6.28
2023-03-22T05:12:44.978Z,6.30
2023-03-22T05:15:27.476Z,6.29
2023-03-22T05:17:59.922Z,6.28
2023-03-22T05:20:32.678Z,6.28
2023-03-22T05:23:23.202Z,6.29
2023-03-22T05:25:58.376Z,6.31
2023-03-22T05:28:32.066Z,6.32
2023-03-22T05:31:17.332Z,6.35
2023-03-22T05:33:54.835Z,6.34
2023-03-22T05:36:29.844Z,6.36
2023-03-22T05:39:28.267Z,6.37
2023-03-22T05:42:00.981Z,6.38
2023-03-22T05:44:35.540Z,6.41
2023-03-22T05:47:13.534Z,6.42
2023-03-22T05:50:06.801Z,6.44
2023-03-22T05:52:39.084Z,6.44
2023-03-22T05:55:46.471Z,6.44
2023-03-22T05:58:19.244Z,6.44
2023-03-22T06:00:52.838Z,6.47
2023-03-22T06:03:32.175Z,6.48
2023-03-22T06:06:12.135Z,6.49
2023-03-22T06:08:55.310Z,6.49
2023-03-22T06:11:30.655Z,6.50
2023-03-22T06:14:02.817Z,6.52
2023-03-22T06:16:47.385Z,6.55
2023-03-22T06:19:19.643Z,6.58
2023-03-22T06:21:52.917Z,6.59
2023-03-22T06:24:26.849Z,6.63
2023-03-22T06:26:58.886Z,6.65
2023-03-22T06:29:31.566Z,6.67
2023-03-22T06:32:05.210Z,6.70
2023-03-22T06:34:37.711Z,6.74
2023-03-22T06:37:10.079Z,6.78
2023-03-22T06:39:45.424Z,6.82
2023-03-22T06:42:17.583Z,6.84
2023-03-22T06:44:50.143Z,6.88
2023-03-22T06:47:34.350Z,6.92
2023-03-22T06:50:07.290Z,6.98
2023-03-22T06:52:57.753Z,7.06
2023-03-22T06:55:33.328Z,7.10
2023-03-22T06:58:06.422Z,7.15
2023-03-22T07:00:39.436Z,7.21
2023-03-22T07:03:12.659Z,7.27
2023-03-22T07:06:01.661Z,7.34
2023-03-22T07:08:34.342Z,7.41
2023-03-22T07:11:11.291Z,7.45
2023-03-22T07:13:43.472Z,7.48
2023-03-22T07:16:20.436Z,7.49
2023-03-22T07:18:57.238Z,7.51
2023-03-22T07:21:29.394Z,7.56
2023-03-22T07:24:04.468Z,7.63
2023-03-22T07:26:38.715Z,7.68
2023-03-22T07:29:13.799Z,7.72
2023-03-22T07:31:47.557Z,7.79
2023-03-22T07:34:28.804Z,7.87
2023-03-22T07:37:10.173Z,7.99
2023-03-22T07:39:42.819Z,8.13
2023-03-22T07:42:15.542Z,8.28
2023-03-22T07:44:49.877Z,8.42
2023-03-22T07:47:40.035Z,8.55
2023-03-22T07:50:19.576Z,8.69
2023-03-22T07:52:55.522Z,8.80
2023-03-22T07:55:27.527Z,8.89
2023-03-22T07:57:59.932Z,8.91
2023-03-22T08:00:32.303Z,8.96
2023-03-22T08:03:24.311Z,9.08
2023-03-22T08:06:08.614Z,9.23
2023-03-22T08:08:41.737Z,9.39
2023-03-22T08:11:14.309Z,9.70
2023-03-22T08:13:46.362Z,10.11
2023-03-22T08:16:20.030Z,10.29
2023-03-22T08:18:52.294Z,10.33
2023-03-22T08:21:26.112Z,10.32
2023-03-22T08:24:01.350Z,10.34
2023-03-22T08:26:52.263Z,10.46
2023-03-22T08:29:34.146Z,10.65
2023-03-22T08:32:08.518Z,10.92
2023-03-22T08:34:41.352Z,11.07
2023-03-22T08:37:14.427Z,11.02
2023-03-22T08:39:47.352Z,10.97
2023-03-22T08:42:32.352Z,10.97
2023-03-22T08:45:05.055Z,10.98
2023-03-22T08:47:38.896Z,10.99
2023-03-22T08:50:14.376Z,10.97
2023-03-22T08:52:57.559Z,11.00
2023-03-22T08:55:35.568Z,11.09
2023-03-22T08:58:19.112Z,11.38
2023-03-22T09:01:16.267Z,11.71
2023-03-22T09:03:53.913Z,12.05
2023-03-22T09:06:27.865Z,12.31
2023-03-22T09:08:59.997Z,12.27
2023-03-22T09:11:35.609Z,12.32
2023-03-22T09:14:10.976Z,12.57
2023-03-22T09:16:44.238Z,12.93
2023-03-22T09:19:19.393Z,13.81
2023-03-22T09:21:52.043Z,15.44
2023-03-22T09:24:34.408Z,15.73
2023-03-22T09:27:08.015Z,15.44
2023-03-22T09:29:40.032Z,15.19
2023-03-22T09:32:15.660Z,15.45
2023-03-22T09:34:48.828Z,15.74
2023-03-22T09:37:21.773Z,15.82
2023-03-22T09:39:57.696Z,15.92
2023-03-22T09:42:38.342Z,15.90
2023-03-22T09:45:17.872Z,15.86
2023-03-22T09:47:55.987Z,15.88
2023-03-22T09:50:33.210Z,15.71
2023-03-22T09:53:05.287Z,15.56
2023-03-22T09:55:45.576Z,15.40
2023-03-22T09:58:25.996Z,15.34
2023-03-22T10:01:01.195Z,15.35
2023-03-22T10:03:56.698Z,15.40
2023-03-22T10:06:29.557Z,15.47
2023-03-22T10:09:11.074Z,15.50
2023-03-22T10:11:47.552Z,15.59
2023-03-22T10:14:34.274Z,15.80
2023-03-22T10:17:11.820Z,15.92
2023-03-22T10:19:52.842Z,15.98
2023-03-22T10:22:31.577Z,16.13
2023-03-22T10:25:07.383Z,16.46
2023-03-22T10:27:40.194Z,17.02
2023-03-22T10:30:23.035Z,17.48
2023-03-22T10:33:02.153Z,17.70
2023-03-22T10:35:34.770Z,17.85
2023-03-22T10:38:18.567Z,17.90
2023-03-22T10:40:53.651Z,18.48
2023-03-22T10:43:29.146Z,18.78
2023-03-22T10:46:03.852Z,19.30
2023-03-22T10:48:39.193Z,19.59
2023-03-22T10:51:17.418Z,19.71
2023-03-22T10:53:53.196Z,19.96
2023-03-22T10:56:26.320Z,20.33
2023-03-22T10:58:59.155Z,20.22
2023-03-22T11:01:33.649Z,20.00
2023-03-22T11:04:12.695Z,19.81
2023-03-22T11:06:54.820Z,20.13
2023-03-22T11:09:28.143Z,20.84
2023-03-22T11:12:01.820Z,21.21
2023-03-22T11:14:37.546Z,20.61
2023-03-22T11:17:14.588Z,20.37
2023-03-22T11:19:55.668Z,20.16
2023-03-22T11:22:32.668Z,20.21
2023-03-22T11:25:08.464Z,20.40
2023-03-22T11:27:50.079Z,20.45
2023-03-22T11:30:26.180Z,19.89
2023-03-22T11:33:17.032Z,19.62
2023-03-22T11:35:56.851Z,19.71
2023-03-22T11:38:36.668Z,19.75
2023-03-22T11:41:13.429Z,20.61
2023-03-22T11:43:51.434Z,20.97
2023-03-22T11:46:24.934Z,20.83
2023-03-22T11:49:03.159Z,20.95
2023-03-22T11:51:37.390Z,21.63
2023-03-22T11:54:16.023Z,22.25
2023-03-22T11:56:51.325Z,22.61
2023-03-22T11:59:28.142Z,22.84
2023-03-22T12:02:06.678Z,23.16
2023-03-22T12:04:42.921Z,23.53
2023-03-22T12:07:19.507Z,24.10
2023-03-22T12:09:58.975Z,24.85
2023-03-22T12:12:36.175Z,24.93
2023-03-22T12:15:14.507Z,24.34
2023-03-22T12:17:50.726Z,23.56
2023-03-22T12:20:36.048Z,22.75
2023-03-22T12:23:16.716Z,22.97
2023-03-22T12:25:52.866Z,23.42
2023-03-22T12:28:29.414Z,23.39
2023-03-22T12:31:03.835Z,22.65
2023-03-22T12:33:48.721Z,22.39
2023-03-22T12:36:27.694Z,22.53
2023-03-22T12:39:02.526Z,22.96
2023-03-22T12:41:40.067Z,23.70
2023-03-22T12:44:18.585Z,24.36
2023-03-22T12:46:54.713Z,24.43
2023-03-22T12:49:38.172Z,24.91
2023-03-22T12:52:16.721Z,24.72
2023-03-22T12:54:51.748Z,24.78
2023-03-22T12:57:24.220Z,25.84
2023-03-22T13:00:00.398Z,26.55
2023-03-22T13:02:35.544Z,26.06
2023-03-22T13:05:12.161Z,25.80
2023-03-22T13:07:55.823Z,25.57
2023-03-22T13:11:01.738Z,25.56
2023-03-22T13:13:50.024Z,25.77
2023-03-22T13:16:43.363Z,26.36
2023-03-22T13:19:34.627Z,26.30
2023-03-22T13:22:22.343Z,26.17
2023-03-22T13:25:14.630Z,25.45
2023-03-22T13:27:58.632Z,24.27
2023-03-22T13:30:35.055Z,22.89
2023-03-22T13:33:21.301Z,22.01
2023-03-22T13:35:58.914Z,21.22
2023-03-22T13:38:35.040Z,20.53
2023-03-22T13:41:10.098Z,20.15
2023-03-22T13:43:51.236Z,20.66
2023-03-22T13:46:50.489Z,21.60
2023-03-22T13:49:53.427Z,21.60
2023-03-22T13:52:28.978Z,20.99
2023-03-22T13:55:01.565Z,20.50
2023-03-22T13:57:50.374Z,20.50
2023-03-22T14:00:41.344Z,20.22
2023-03-22T14:03:24.501Z,20.32
2023-03-22T14:06:10.109Z,20.67
2023-03-22T14:08:44.650Z,20.62
2023-03-22T14:11:33.201Z,20.52
2023-03-22T14:14:09.179Z,20.28
2023-03-22T14:16:46.566Z,20.15
2023-03-22T14:19:23.270Z,20.04
